sensor_id;sensor_type;location;lat;lon;timestamp;P1;durP1;ratioP1;P2;durP2;ratioP2
45208;SDS011;30951;43.994;26.260;2022-08-25T00:00:35;29.70;;;5.53;;
45208;SDS011;30951;43.994;26.260;2022-08-25T00:03:01;30.17;;;5.45;;
45208;SDS011;30951;43.994;26.260;2022-08-25T00:05:27;27.48;;;6.32;;
45208;SDS011;30951;43.994;26.260;2022-08-25T00:07:53;29.30;;;5.70;;
45208;SDS011;30951;43.994;26.260;2022-08-25T00:10:19;35.97;;;6.35;;
45208;SDS011;30951;43.994;26.260;2022-08-25T00:12:45;30.80;;;5.53;;
45208;SDS011;30951;43.994;26.260;2022-08-25T00:15:10;42.28;;;6.20;;
45208;SDS011;30951;43.994;26.260;2022-08-25T00:17:36;22.00;;;5.97;;
45208;SDS011;30951;43.994;26.260;2022-08-25T00:20:03;22.48;;;6.53;;
45208;SDS011;30951;43.994;26.260;2022-08-25T00:22:29;30.05;;;6.68;;
45208;SDS011;30951;43.994;26.260;2022-08-25T00:24:54;32.08;;;6.57;;
45208;SDS011;30951;43.994;26.260;2022-08-25T00:27:19;31.45;;;6.65;;
45208;SDS011;30951;43.994;26.260;2022-08-25T00:29:45;32.45;;;7.22;;
45208;SDS011;30951;43.994;26.260;2022-08-25T00:32:11;26.27;;;8.00;;
45208;SDS011;30951;43.994;26.260;2022-08-25T00:34:38;35.33;;;8.52;;
45208;SDS011;30951;43.994;26.260;2022-08-25T00:37:05;23.90;;;7.97;;
45208;SDS011;30951;43.994;26.260;2022-08-25T00:39:31;29.63;;;8.25;;
45208;SDS011;30951;43.994;26.260;2022-08-25T00:41:57;27.48;;;8.70;;
45208;SDS011;30951;43.994;26.260;2022-08-25T00:44:24;32.53;;;7.90;;
45208;SDS011;30951;43.994;26.260;2022-08-25T00:46:53;28.70;;;7.85;;
45208;SDS011;30951;43.994;26.260;2022-08-25T00:49:35;28.83;;;8.40;;
45208;SDS011;30951;43.994;26.260;2022-08-25T00:52:05;35.67;;;8.35;;
45208;SDS011;30951;43.994;26.260;2022-08-25T00:54:35;39.17;;;8.13;;
45208;SDS011;30951;43.994;26.260;2022-08-25T00:57:06;26.00;;;7.65;;
45208;SDS011;30951;43.994;26.260;2022-08-25T00:59:33;41.85;;;7.80;;
45208;SDS011;30951;43.994;26.260;2022-08-25T01:01:59;28.95;;;9.02;;
45208;SDS011;30951;43.994;26.260;2022-08-25T01:04:25;40.65;;;9.07;;
45208;SDS011;30951;43.994;26.260;2022-08-25T01:06:52;24.50;;;7.40;;
45208;SDS011;30951;43.994;26.260;2022-08-25T01:09:19;31.20;;;8.70;;
45208;SDS011;30951;43.994;26.260;2022-08-25T01:11:45;26.77;;;8.02;;
45208;SDS011;30951;43.994;26.260;2022-08-25T01:14:12;26.75;;;8.00;;
45208;SDS011;30951;43.994;26.260;2022-08-25T01:16:40;32.50;;;8.85;;
45208;SDS011;30951;43.994;26.260;2022-08-25T01:19:08;35.92;;;7.97;;
45208;SDS011;30951;43.994;26.260;2022-08-25T01:21:38;41.83;;;8.85;;
45208;SDS011;30951;43.994;26.260;2022-08-25T01:24:05;35.50;;;8.77;;
45208;SDS011;30951;43.994;26.260;2022-08-25T01:26:31;39.90;;;8.70;;
45208;SDS011;30951;43.994;26.260;2022-08-25T01:28:59;34.67;;;9.30;;
45208;SDS011;30951;43.994;26.260;2022-08-25T01:31:46;37.28;;;9.70;;
45208;SDS011;30951;43.994;26.260;2022-08-25T01:34:13;26.75;;;9.90;;
45208;SDS011;30951;43.994;26.260;2022-08-25T01:36:39;26.45;;;9.20;;
45208;SDS011;30951;43.994;26.260;2022-08-25T01:39:06;26.85;;;8.82;;
45208;SDS011;30951;43.994;26.260;2022-08-25T01:41:39;28.35;;;8.60;;
45208;SDS011;30951;43.994;26.260;2022-08-25T01:44:15;22.30;;;8.70;;
45208;SDS011;30951;43.994;26.260;2022-08-25T01:46:40;38.47;;;10.50;;
45208;SDS011;30951;43.994;26.260;2022-08-25T01:49:06;27.48;;;9.98;;
45208;SDS011;30951;43.994;26.260;2022-08-25T01:51:34;30.90;;;10.27;;
45208;SDS011;30951;43.994;26.260;2022-08-25T01:54:11;35.13;;;9.80;;
45208;SDS011;30951;43.994;26.260;2022-08-25T01:56:37;26.20;;;10.10;;
45208;SDS011;30951;43.994;26.260;2022-08-25T01:59:02;36.53;;;9.63;;
45208;SDS011;30951;43.994;26.260;2022-08-25T02:01:28;26.80;;;9.40;;
45208;SDS011;30951;43.994;26.260;2022-08-25T02:03:54;35.97;;;9.55;;
45208;SDS011;30951;43.994;26.260;2022-08-25T02:06:22;24.83;;;8.95;;
45208;SDS011;30951;43.994;26.260;2022-08-25T02:08:51;20.10;;;7.47;;
45208;SDS011;30951;43.994;26.260;2022-08-25T02:11:17;38.28;;;8.77;;
45208;SDS011;30951;43.994;26.260;2022-08-25T02:13:44;44.15;;;7.55;;
45208;SDS011;30951;43.994;26.260;2022-08-25T02:16:09;35.22;;;6.82;;
45208;SDS011;30951;43.994;26.260;2022-08-25T02:18:40;56.63;;;7.47;;
45208;SDS011;30951;43.994;26.260;2022-08-25T02:21:06;44.85;;;7.10;;
45208;SDS011;30951;43.994;26.260;2022-08-25T02:23:31;43.08;;;6.10;;
45208;SDS011;30951;43.994;26.260;2022-08-25T02:25:57;41.63;;;6.35;;
45208;SDS011;30951;43.994;26.260;2022-08-25T02:28:23;36.28;;;7.07;;
45208;SDS011;30951;43.994;26.260;2022-08-25T02:30:49;37.88;;;5.80;;
45208;SDS011;30951;43.994;26.260;2022-08-25T02:33:16;42.15;;;5.97;;
45208;SDS011;30951;43.994;26.260;2022-08-25T02:35:43;51.80;;;6.22;;
45208;SDS011;30951;43.994;26.260;2022-08-25T02:38:09;44.30;;;7.38;;
45208;SDS011;30951;43.994;26.260;2022-08-25T02:40:34;40.25;;;7.03;;
45208;SDS011;30951;43.994;26.260;2022-08-25T02:43:00;41.58;;;5.57;;
45208;SDS011;30951;43.994;26.260;2022-08-25T02:45:26;35.35;;;5.30;;
45208;SDS011;30951;43.994;26.260;2022-08-25T02:47:52;39.13;;;6.40;;
45208;SDS011;30951;43.994;26.260;2022-08-25T02:50:17;36.55;;;5.97;;
45208;SDS011;30951;43.994;26.260;2022-08-25T02:52:43;43.47;;;5.80;;
45208;SDS011;30951;43.994;26.260;2022-08-25T02:55:10;39.05;;;6.38;;
45208;SDS011;30951;43.994;26.260;2022-08-25T02:57:38;36.85;;;5.68;;
45208;SDS011;30951;43.994;26.260;2022-08-25T03:00:06;45.75;;;5.38;;
45208;SDS011;30951;43.994;26.260;2022-08-25T03:02:33;42.92;;;7.20;;
45208;SDS011;30951;43.994;26.260;2022-08-25T03:04:59;41.25;;;6.60;;
45208;SDS011;30951;43.994;26.260;2022-08-25T03:07:24;38.63;;;5.93;;
45208;SDS011;30951;43.994;26.260;2022-08-25T03:09:49;38.00;;;6.07;;
45208;SDS011;30951;43.994;26.260;2022-08-25T03:12:15;40.58;;;5.82;;
45208;SDS011;30951;43.994;26.260;2022-08-25T03:14:41;63.30;;;6.40;;
45208;SDS011;30951;43.994;26.260;2022-08-25T03:17:07;46.05;;;6.50;;
45208;SDS011;30951;43.994;26.260;2022-08-25T03:19:33;48.35;;;6.53;;
45208;SDS011;30951;43.994;26.260;2022-08-25T03:22:00;57.42;;;6.65;;
45208;SDS011;30951;43.994;26.260;2022-08-25T03:24:26;46.10;;;7.40;;
45208;SDS011;30951;43.994;26.260;2022-08-25T03:26:52;44.08;;;6.25;;
45208;SDS011;30951;43.994;26.260;2022-08-25T03:29:22;39.88;;;5.90;;
45208;SDS011;30951;43.994;26.260;2022-08-25T03:31:53;48.58;;;6.50;;
45208;SDS011;30951;43.994;26.260;2022-08-25T03:34:20;44.97;;;6.28;;
45208;SDS011;30951;43.994;26.260;2022-08-25T03:36:49;36.38;;;6.07;;
45208;SDS011;30951;43.994;26.260;2022-08-25T03:39:17;42.13;;;6.32;;
45208;SDS011;30951;43.994;26.260;2022-08-25T03:41:43;46.17;;;5.40;;
45208;SDS011;30951;43.994;26.260;2022-08-25T03:44:08;41.78;;;6.25;;
45208;SDS011;30951;43.994;26.260;2022-08-25T03:46:45;46.10;;;6.43;;
45208;SDS011;30951;43.994;26.260;2022-08-25T03:49:13;42.90;;;5.45;;
45208;SDS011;30951;43.994;26.260;2022-08-25T03:51:44;45.67;;;6.47;;
45208;SDS011;30951;43.994;26.260;2022-08-25T03:54:12;37.75;;;5.90;;
45208;SDS011;30951;43.994;26.260;2022-08-25T03:56:38;39.05;;;6.03;;
45208;SDS011;30951;43.994;26.260;2022-08-25T03:59:04;46.58;;;6.22;;
45208;SDS011;30951;43.994;26.260;2022-08-25T04:01:33;48.45;;;6.30;;
45208;SDS011;30951;43.994;26.260;2022-08-25T04:04:00;33.03;;;5.20;;
45208;SDS011;30951;43.994;26.260;2022-08-25T04:06:26;41.83;;;5.57;;
45208;SDS011;30951;43.994;26.260;2022-08-25T04:08:52;50.60;;;5.70;;
45208;SDS011;30951;43.994;26.260;2022-08-25T04:11:18;47.15;;;6.72;;
45208;SDS011;30951;43.994;26.260;2022-08-25T04:13:47;36.20;;;5.40;;
45208;SDS011;30951;43.994;26.260;2022-08-25T04:16:14;45.03;;;6.15;;
45208;SDS011;30951;43.994;26.260;2022-08-25T04:18:41;38.65;;;5.93;;
45208;SDS011;30951;43.994;26.260;2022-08-25T04:21:07;38.00;;;4.63;;
45208;SDS011;30951;43.994;26.260;2022-08-25T04:23:34;36.75;;;5.70;;
45208;SDS011;30951;43.994;26.260;2022-08-25T04:26:01;42.17;;;6.15;;
45208;SDS011;30951;43.994;26.260;2022-08-25T04:28:30;54.42;;;5.93;;
45208;SDS011;30951;43.994;26.260;2022-08-25T04:30:56;39.03;;;5.90;;
45208;SDS011;30951;43.994;26.260;2022-08-25T04:33:21;47.28;;;5.43;;
45208;SDS011;30951;43.994;26.260;2022-08-25T04:35:47;29.25;;;5.03;;
45208;SDS011;30951;43.994;26.260;2022-08-25T04:38:13;48.80;;;5.85;;
45208;SDS011;30951;43.994;26.260;2022-08-25T04:40:39;36.13;;;5.03;;
45208;SDS011;30951;43.994;26.260;2022-08-25T04:43:04;39.88;;;5.10;;
45208;SDS011;30951;43.994;26.260;2022-08-25T04:45:30;35.88;;;5.15;;
45208;SDS011;30951;43.994;26.260;2022-08-25T04:47:55;44.67;;;5.43;;
45208;SDS011;30951;43.994;26.260;2022-08-25T04:50:25;35.38;;;5.75;;
45208;SDS011;30951;43.994;26.260;2022-08-25T04:52:50;34.55;;;5.30;;
45208;SDS011;30951;43.994;26.260;2022-08-25T04:55:16;45.83;;;4.68;;
45208;SDS011;30951;43.994;26.260;2022-08-25T04:57:42;40.53;;;6.97;;
45208;SDS011;30951;43.994;26.260;2022-08-25T05:00:08;50.47;;;5.43;;
45208;SDS011;30951;43.994;26.260;2022-08-25T05:02:34;38.53;;;5.65;;
45208;SDS011;30951;43.994;26.260;2022-08-25T05:05:00;39.67;;;5.35;;
45208;SDS011;30951;43.994;26.260;2022-08-25T05:07:27;40.85;;;5.53;;
45208;SDS011;30951;43.994;26.260;2022-08-25T05:09:52;32.35;;;5.65;;
45208;SDS011;30951;43.994;26.260;2022-08-25T05:12:18;34.60;;;6.00;;
45208;SDS011;30951;43.994;26.260;2022-08-25T05:14:44;34.67;;;5.03;;
45208;SDS011;30951;43.994;26.260;2022-08-25T05:17:10;38.00;;;5.22;;
45208;SDS011;30951;43.994;26.260;2022-08-25T05:19:35;26.05;;;4.50;;
45208;SDS011;30951;43.994;26.260;2022-08-25T05:22:01;49.33;;;5.43;;
45208;SDS011;30951;43.994;26.260;2022-08-25T05:24:27;37.00;;;5.50;;
45208;SDS011;30951;43.994;26.260;2022-08-25T05:26:53;39.25;;;4.60;;
45208;SDS011;30951;43.994;26.260;2022-08-25T05:29:19;50.50;;;5.43;;
45208;SDS011;30951;43.994;26.260;2022-08-25T05:31:45;44.58;;;6.18;;
45208;SDS011;30951;43.994;26.260;2022-08-25T05:34:10;35.90;;;6.35;;
45208;SDS011;30951;43.994;26.260;2022-08-25T05:36:36;34.42;;;5.45;;
45208;SDS011;30951;43.994;26.260;2022-08-25T05:41:32;35.83;;;5.82;;
45208;SDS011;30951;43.994;26.260;2022-08-25T05:43:58;33.58;;;4.80;;
45208;SDS011;30951;43.994;26.260;2022-08-25T05:46:23;43.38;;;5.43;;
45208;SDS011;30951;43.994;26.260;2022-08-25T05:48:49;26.05;;;4.95;;
45208;SDS011;30951;43.994;26.260;2022-08-25T05:51:15;33.03;;;4.93;;
45208;SDS011;30951;43.994;26.260;2022-08-25T05:53:41;37.08;;;5.75;;
45208;SDS011;30951;43.994;26.260;2022-08-25T05:56:09;27.88;;;5.75;;
45208;SDS011;30951;43.994;26.260;2022-08-25T05:58:36;43.08;;;6.60;;
45208;SDS011;30951;43.994;26.260;2022-08-25T06:01:02;29.52;;;4.60;;
45208;SDS011;30951;43.994;26.260;2022-08-25T06:03:46;46.72;;;5.70;;
45208;SDS011;30951;43.994;26.260;2022-08-25T06:06:12;40.55;;;5.72;;
45208;SDS011;30951;43.994;26.260;2022-08-25T06:08:38;41.75;;;5.72;;
45208;SDS011;30951;43.994;26.260;2022-08-25T06:11:05;27.55;;;6.10;;
45208;SDS011;30951;43.994;26.260;2022-08-25T06:13:31;31.23;;;5.15;;
45208;SDS011;30951;43.994;26.260;2022-08-25T06:15:57;36.05;;;5.65;;
45208;SDS011;30951;43.994;26.260;2022-08-25T06:18:23;35.83;;;5.25;;
45208;SDS011;30951;43.994;26.260;2022-08-25T06:20:49;32.97;;;5.35;;
45208;SDS011;30951;43.994;26.260;2022-08-25T06:23:15;41.45;;;5.57;;
45208;SDS011;30951;43.994;26.260;2022-08-25T06:25:47;23.65;;;4.60;;
45208;SDS011;30951;43.994;26.260;2022-08-25T06:28:14;37.28;;;5.53;;
45208;SDS011;30951;43.994;26.260;2022-08-25T06:30:39;35.63;;;5.03;;
45208;SDS011;30951;43.994;26.260;2022-08-25T06:33:05;48.55;;;5.53;;
45208;SDS011;30951;43.994;26.260;2022-08-25T06:35:30;45.63;;;5.10;;
45208;SDS011;30951;43.994;26.260;2022-08-25T06:37:56;36.42;;;5.00;;
45208;SDS011;30951;43.994;26.260;2022-08-25T06:40:22;20.20;;;3.92;;
45208;SDS011;30951;43.994;26.260;2022-08-25T06:42:48;23.58;;;4.72;;
45208;SDS011;30951;43.994;26.260;2022-08-25T06:45:14;23.75;;;4.85;;
45208;SDS011;30951;43.994;26.260;2022-08-25T06:47:39;28.63;;;4.15;;
45208;SDS011;30951;43.994;26.260;2022-08-25T06:50:05;31.33;;;4.57;;
45208;SDS011;30951;43.994;26.260;2022-08-25T06:52:31;44.50;;;5.75;;
45208;SDS011;30951;43.994;26.260;2022-08-25T06:54:57;23.55;;;4.18;;
45208;SDS011;30951;43.994;26.260;2022-08-25T06:57:22;34.22;;;4.70;;
45208;SDS011;30951;43.994;26.260;2022-08-25T06:59:48;37.00;;;6.20;;
45208;SDS011;30951;43.994;26.260;2022-08-25T07:02:13;24.92;;;4.38;;
45208;SDS011;30951;43.994;26.260;2022-08-25T07:04:39;31.88;;;4.57;;
45208;SDS011;30951;43.994;26.260;2022-08-25T07:07:04;42.33;;;4.93;;
45208;SDS011;30951;43.994;26.260;2022-08-25T07:09:30;35.40;;;4.40;;
45208;SDS011;30951;43.994;26.260;2022-08-25T07:11:56;29.52;;;5.90;;
45208;SDS011;30951;43.994;26.260;2022-08-25T07:14:21;23.17;;;3.90;;
45208;SDS011;30951;43.994;26.260;2022-08-25T07:16:47;26.80;;;4.80;;
45208;SDS011;30951;43.994;26.260;2022-08-25T07:19:13;25.35;;;3.78;;
45208;SDS011;30951;43.994;26.260;2022-08-25T07:21:39;39.00;;;4.55;;
45208;SDS011;30951;43.994;26.260;2022-08-25T07:24:07;26.90;;;4.05;;
45208;SDS011;30951;43.994;26.260;2022-08-25T07:26:34;21.10;;;3.90;;
45208;SDS011;30951;43.994;26.260;2022-08-25T07:29:00;19.48;;;3.78;;
45208;SDS011;30951;43.994;26.260;2022-08-25T07:31:30;26.52;;;4.10;;
45208;SDS011;30951;43.994;26.260;2022-08-25T07:33:56;20.35;;;4.25;;
45208;SDS011;30951;43.994;26.260;2022-08-25T07:36:40;34.17;;;4.75;;
45208;SDS011;30951;43.994;26.260;2022-08-25T07:39:07;22.60;;;4.20;;
45208;SDS011;30951;43.994;26.260;2022-08-25T07:41:37;23.48;;;3.90;;
45208;SDS011;30951;43.994;26.260;2022-08-25T07:44:04;23.75;;;3.55;;
45208;SDS011;30951;43.994;26.260;2022-08-25T07:46:30;24.27;;;3.78;;
45208;SDS011;30951;43.994;26.260;2022-08-25T07:48:56;25.98;;;4.40;;
45208;SDS011;30951;43.994;26.260;2022-08-25T07:51:21;24.35;;;4.00;;
45208;SDS011;30951;43.994;26.260;2022-08-25T07:53:47;21.88;;;3.75;;
45208;SDS011;30951;43.994;26.260;2022-08-25T07:56:14;23.95;;;3.47;;
45208;SDS011;30951;43.994;26.260;2022-08-25T07:58:41;23.85;;;3.63;;
45208;SDS011;30951;43.994;26.260;2022-08-25T08:01:12;23.42;;;3.42;;
45208;SDS011;30951;43.994;26.260;2022-08-25T08:03:39;21.10;;;3.72;;
45208;SDS011;30951;43.994;26.260;2022-08-25T08:06:08;30.73;;;4.35;;
45208;SDS011;30951;43.994;26.260;2022-08-25T08:08:36;30.83;;;4.57;;
45208;SDS011;30951;43.994;26.260;2022-08-25T08:11:02;21.52;;;3.72;;
45208;SDS011;30951;43.994;26.260;2022-08-25T08:13:27;13.35;;;3.70;;
45208;SDS011;30951;43.994;26.260;2022-08-25T08:15:53;19.63;;;3.65;;
45208;SDS011;30951;43.994;26.260;2022-08-25T08:18:19;29.85;;;4.30;;
45208;SDS011;30951;43.994;26.260;2022-08-25T08:20:46;14.00;;;3.30;;
45208;SDS011;30951;43.994;26.260;2022-08-25T08:23:12;26.58;;;3.78;;
45208;SDS011;30951;43.994;26.260;2022-08-25T08:25:39;17.95;;;3.30;;
45208;SDS011;30951;43.994;26.260;2022-08-25T08:28:04;23.63;;;5.03;;
45208;SDS011;30951;43.994;26.260;2022-08-25T08:30:30;18.40;;;3.22;;
45208;SDS011;30951;43.994;26.260;2022-08-25T08:32:56;26.75;;;3.80;;
45208;SDS011;30951;43.994;26.260;2022-08-25T08:35:21;18.45;;;3.92;;
45208;SDS011;30951;43.994;26.260;2022-08-25T08:37:47;23.15;;;4.05;;
45208;SDS011;30951;43.994;26.260;2022-08-25T08:40:13;18.15;;;3.42;;
45208;SDS011;30951;43.994;26.260;2022-08-25T08:45:33;15.00;;;3.45;;
45208;SDS011;30951;43.994;26.260;2022-08-25T08:48:13;18.30;;;3.30;;
45208;SDS011;30951;43.994;26.260;2022-08-25T08:56:43;19.58;;;3.60;;
45208;SDS011;30951;43.994;26.260;2022-08-25T08:59:12;15.90;;;2.72;;
45208;SDS011;30951;43.994;26.260;2022-08-25T09:01:56;13.23;;;3.58;;
45208;SDS011;30951;43.994;26.260;2022-08-25T09:04:43;18.08;;;3.42;;
45208;SDS011;30951;43.994;26.260;2022-08-25T09:07:12;19.52;;;3.80;;
45208;SDS011;30951;43.994;26.260;2022-08-25T09:09:40;19.52;;;3.85;;
45208;SDS011;30951;43.994;26.260;2022-08-25T09:26:24;15.48;;;3.92;;
45208;SDS011;30951;43.994;26.260;2022-08-25T09:29:14;17.13;;;3.35;;
45208;SDS011;30951;43.994;26.260;2022-08-25T09:31:44;9.38;;;3.00;;
45208;SDS011;30951;43.994;26.260;2022-08-25T09:34:21;16.30;;;3.05;;
45208;SDS011;30951;43.994;26.260;2022-08-25T09:36:48;16.25;;;3.40;;
45208;SDS011;30951;43.994;26.260;2022-08-25T09:39:17;24.23;;;3.80;;
45208;SDS011;30951;43.994;26.260;2022-08-25T09:44:18;24.17;;;4.07;;
45208;SDS011;30951;43.994;26.260;2022-08-25T09:46:59;20.35;;;2.92;;
45208;SDS011;30951;43.994;26.260;2022-08-25T09:49:50;21.13;;;3.72;;
45208;SDS011;30951;43.994;26.260;2022-08-25T09:54:59;19.70;;;3.30;;
45208;SDS011;30951;43.994;26.260;2022-08-25T09:57:47;21.20;;;3.10;;
45208;SDS011;30951;43.994;26.260;2022-08-25T10:00:35;22.35;;;3.67;;
45208;SDS011;30951;43.994;26.260;2022-08-25T10:03:02;16.73;;;4.20;;
45208;SDS011;30951;43.994;26.260;2022-08-25T10:05:32;19.02;;;3.55;;
45208;SDS011;30951;43.994;26.260;2022-08-25T10:08:03;23.30;;;4.15;;
45208;SDS011;30951;43.994;26.260;2022-08-25T10:10:37;25.27;;;3.30;;
45208;SDS011;30951;43.994;26.260;2022-08-25T10:13:17;20.88;;;4.15;;
45208;SDS011;30951;43.994;26.260;2022-08-25T10:15:43;34.53;;;4.00;;
45208;SDS011;30951;43.994;26.260;2022-08-25T10:18:18;22.77;;;3.72;;
45208;SDS011;30951;43.994;26.260;2022-08-25T10:21:00;22.40;;;4.20;;
45208;SDS011;30951;43.994;26.260;2022-08-25T10:23:33;31.75;;;4.15;;
45208;SDS011;30951;43.994;26.260;2022-08-25T10:26:02;16.60;;;3.17;;
45208;SDS011;30951;43.994;26.260;2022-08-25T10:28:42;19.08;;;3.53;;
45208;SDS011;30951;43.994;26.260;2022-08-25T10:31:29;23.00;;;4.15;;
45208;SDS011;30951;43.994;26.260;2022-08-25T10:34:58;25.85;;;4.13;;
45208;SDS011;30951;43.994;26.260;2022-08-25T10:42:05;22.40;;;5.00;;
45208;SDS011;30951;43.994;26.260;2022-08-25T10:44:44;23.17;;;4.83;;
45208;SDS011;30951;43.994;26.260;2022-08-25T10:50:40;34.92;;;4.68;;
45208;SDS011;30951;43.994;26.260;2022-08-25T10:58:52;24.38;;;4.15;;
45208;SDS011;30951;43.994;26.260;2022-08-25T11:06:59;26.48;;;3.80;;
45208;SDS011;30951;43.994;26.260;2022-08-25T11:09:32;29.77;;;4.10;;
45208;SDS011;30951;43.994;26.260;2022-08-25T11:12:05;26.50;;;3.83;;
45208;SDS011;30951;43.994;26.260;2022-08-25T11:14:35;32.30;;;4.63;;
45208;SDS011;30951;43.994;26.260;2022-08-25T11:17:12;26.40;;;4.50;;
45208;SDS011;30951;43.994;26.260;2022-08-25T11:19:46;19.20;;;3.38;;
45208;SDS011;30951;43.994;26.260;2022-08-25T11:22:24;17.67;;;3.50;;
45208;SDS011;30951;43.994;26.260;2022-08-25T11:27:48;23.60;;;3.55;;
45208;SDS011;30951;43.994;26.260;2022-08-25T11:30:20;24.88;;;3.72;;
45208;SDS011;30951;43.994;26.260;2022-08-25T11:32:47;19.73;;;3.08;;
45208;SDS011;30951;43.994;26.260;2022-08-25T11:35:16;26.75;;;4.10;;
45208;SDS011;30951;43.994;26.260;2022-08-25T11:41:04;28.05;;;4.18;;
45208;SDS011;30951;43.994;26.260;2022-08-25T11:52:04;20.00;;;3.72;;
45208;SDS011;30951;43.994;26.260;2022-08-25T11:54:41;18.83;;;3.45;;
45208;SDS011;30951;43.994;26.260;2022-08-25T11:57:09;24.95;;;3.67;;
45208;SDS011;30951;43.994;26.260;2022-08-25T12:04:59;13.98;;;3.42;;
45208;SDS011;30951;43.994;26.260;2022-08-25T12:07:27;31.60;;;4.55;;
45208;SDS011;30951;43.994;26.260;2022-08-25T12:15:12;23.45;;;3.70;;
45208;SDS011;30951;43.994;26.260;2022-08-25T12:17:38;22.27;;;3.85;;
45208;SDS011;30951;43.994;26.260;2022-08-25T12:20:04;18.42;;;3.47;;
45208;SDS011;30951;43.994;26.260;2022-08-25T12:25:43;26.30;;;3.88;;
45208;SDS011;30951;43.994;26.260;2022-08-25T12:28:08;22.20;;;3.30;;
45208;SDS011;30951;43.994;26.260;2022-08-25T12:30:49;21.58;;;3.65;;
45208;SDS011;30951;43.994;26.260;2022-08-25T12:36:09;15.70;;;3.72;;
45208;SDS011;30951;43.994;26.260;2022-08-25T12:43:47;19.98;;;3.17;;
45208;SDS011;30951;43.994;26.260;2022-08-25T12:51:23;22.23;;;3.30;;
45208;SDS011;30951;43.994;26.260;2022-08-25T12:53:56;26.48;;;3.95;;
45208;SDS011;30951;43.994;26.260;2022-08-25T12:56:40;21.40;;;3.22;;
45208;SDS011;30951;43.994;26.260;2022-08-25T12:59:13;27.70;;;4.43;;
45208;SDS011;30951;43.994;26.260;2022-08-25T13:12:17;29.15;;;4.75;;
45208;SDS011;30951;43.994;26.260;2022-08-25T13:14:59;36.13;;;4.95;;
45208;SDS011;30951;43.994;26.260;2022-08-25T13:17:26;52.58;;;6.13;;
45208;SDS011;30951;43.994;26.260;2022-08-25T13:20:09;27.42;;;4.85;;
45208;SDS011;30951;43.994;26.260;2022-08-25T13:22:48;49.00;;;5.55;;
45208;SDS011;30951;43.994;26.260;2022-08-25T13:25:16;38.03;;;5.82;;
45208;SDS011;30951;43.994;26.260;2022-08-25T13:27:46;42.55;;;5.45;;
45208;SDS011;30951;43.994;26.260;2022-08-25T13:30:29;44.20;;;5.93;;
45208;SDS011;30951;43.994;26.260;2022-08-25T13:32:57;42.00;;;4.32;;
45208;SDS011;30951;43.994;26.260;2022-08-25T13:35:25;41.03;;;5.32;;
45208;SDS011;30951;43.994;26.260;2022-08-25T13:37:52;46.53;;;6.40;;
45208;SDS011;30951;43.994;26.260;2022-08-25T13:42:45;41.55;;;5.18;;
45208;SDS011;30951;43.994;26.260;2022-08-25T13:45:57;43.00;;;5.75;;
45208;SDS011;30951;43.994;26.260;2022-08-25T13:48:08;34.40;;;4.68;;
45208;SDS011;30951;43.994;26.260;2022-08-25T13:50:37;45.30;;;5.05;;
45208;SDS011;30951;43.994;26.260;2022-08-25T13:55:48;53.78;;;5.78;;
45208;SDS011;30951;43.994;26.260;2022-08-25T13:58:23;57.30;;;5.25;;
45208;SDS011;30951;43.994;26.260;2022-08-25T14:01:02;24.23;;;5.07;;
45208;SDS011;30951;43.994;26.260;2022-08-25T14:03:36;33.53;;;4.68;;
45208;SDS011;30951;43.994;26.260;2022-08-25T14:08:39;38.33;;;5.20;;
45208;SDS011;30951;43.994;26.260;2022-08-25T14:14:00;39.70;;;6.43;;
45208;SDS011;30951;43.994;26.260;2022-08-25T14:16:27;34.83;;;4.70;;
45208;SDS011;30951;43.994;26.260;2022-08-25T14:18:56;37.15;;;4.72;;
45208;SDS011;30951;43.994;26.260;2022-08-25T14:21:27;48.03;;;4.82;;
45208;SDS011;30951;43.994;26.260;2022-08-25T14:23:54;30.60;;;5.03;;
45208;SDS011;30951;43.994;26.260;2022-08-25T14:26:21;38.92;;;5.32;;
45208;SDS011;30951;43.994;26.260;2022-08-25T14:28:47;24.67;;;4.47;;
45208;SDS011;30951;43.994;26.260;2022-08-25T14:34:05;43.05;;;5.35;;
45208;SDS011;30951;43.994;26.260;2022-08-25T14:36:33;39.58;;;5.35;;
45208;SDS011;30951;43.994;26.260;2022-08-25T14:38:59;37.78;;;4.85;;
45208;SDS011;30951;43.994;26.260;2022-08-25T14:41:30;33.10;;;5.22;;
45208;SDS011;30951;43.994;26.260;2022-08-25T14:43:58;34.92;;;5.00;;
45208;SDS011;30951;43.994;26.260;2022-08-25T14:46:30;31.25;;;4.55;;
45208;SDS011;30951;43.994;26.260;2022-08-25T14:48:57;41.67;;;5.75;;
45208;SDS011;30951;43.994;26.260;2022-08-25T14:51:25;37.92;;;4.93;;
45208;SDS011;30951;43.994;26.260;2022-08-25T14:53:52;37.72;;;5.13;;
45208;SDS011;30951;43.994;26.260;2022-08-25T14:56:20;42.08;;;5.53;;
45208;SDS011;30951;43.994;26.260;2022-08-25T14:58:45;38.47;;;5.78;;
45208;SDS011;30951;43.994;26.260;2022-08-25T15:01:12;43.75;;;5.43;;
45208;SDS011;30951;43.994;26.260;2022-08-25T15:03:39;37.50;;;5.30;;
45208;SDS011;30951;43.994;26.260;2022-08-25T15:06:07;33.65;;;5.90;;
45208;SDS011;30951;43.994;26.260;2022-08-25T15:08:35;56.63;;;6.80;;
45208;SDS011;30951;43.994;26.260;2022-08-25T15:11:19;41.50;;;5.22;;
45208;SDS011;30951;43.994;26.260;2022-08-25T15:13:45;59.00;;;6.50;;
45208;SDS011;30951;43.994;26.260;2022-08-25T15:16:12;40.13;;;5.50;;
45208;SDS011;30951;43.994;26.260;2022-08-25T15:18:43;44.17;;;5.78;;
45208;SDS011;30951;43.994;26.260;2022-08-25T15:21:08;49.13;;;6.07;;
45208;SDS011;30951;43.994;26.260;2022-08-25T15:23:34;50.10;;;5.95;;
45208;SDS011;30951;43.994;26.260;2022-08-25T15:25:59;67.80;;;6.50;;
45208;SDS011;30951;43.994;26.260;2022-08-25T15:28:25;53.35;;;5.72;;
45208;SDS011;30951;43.994;26.260;2022-08-25T15:30:51;41.85;;;6.03;;
45208;SDS011;30951;43.994;26.260;2022-08-25T15:33:17;40.00;;;6.05;;
45208;SDS011;30951;43.994;26.260;2022-08-25T15:35:42;68.50;;;8.02;;
45208;SDS011;30951;43.994;26.260;2022-08-25T15:38:08;43.55;;;5.75;;
45208;SDS011;30951;43.994;26.260;2022-08-25T15:40:34;46.80;;;6.90;;
45208;SDS011;30951;43.994;26.260;2022-08-25T15:43:03;48.58;;;5.47;;
45208;SDS011;30951;43.994;26.260;2022-08-25T15:45:28;43.25;;;6.20;;
45208;SDS011;30951;43.994;26.260;2022-08-25T15:47:54;54.78;;;6.68;;
45208;SDS011;30951;43.994;26.260;2022-08-25T15:50:20;55.53;;;7.50;;
45208;SDS011;30951;43.994;26.260;2022-08-25T15:52:47;47.45;;;6.43;;
45208;SDS011;30951;43.994;26.260;2022-08-25T15:55:13;48.25;;;6.53;;
45208;SDS011;30951;43.994;26.260;2022-08-25T15:57:40;52.65;;;6.50;;
45208;SDS011;30951;43.994;26.260;2022-08-25T16:00:07;30.58;;;5.15;;
45208;SDS011;30951;43.994;26.260;2022-08-25T16:02:36;45.47;;;6.70;;
45208;SDS011;30951;43.994;26.260;2022-08-25T16:05:04;45.42;;;5.70;;
45208;SDS011;30951;43.994;26.260;2022-08-25T16:07:30;56.08;;;7.78;;
45208;SDS011;30951;43.994;26.260;2022-08-25T16:09:56;58.17;;;7.60;;
45208;SDS011;30951;43.994;26.260;2022-08-25T16:12:23;48.80;;;7.03;;
45208;SDS011;30951;43.994;26.260;2022-08-25T16:14:49;64.63;;;7.40;;
45208;SDS011;30951;43.994;26.260;2022-08-25T16:17:15;57.88;;;7.47;;
45208;SDS011;30951;43.994;26.260;2022-08-25T16:19:40;50.58;;;6.10;;
45208;SDS011;30951;43.994;26.260;2022-08-25T16:22:06;47.78;;;6.22;;
45208;SDS011;30951;43.994;26.260;2022-08-25T16:24:32;47.22;;;6.32;;